Time;durP1;ratioP1;P1;durP2;ratioP2;P2;SDS_P1;SDS_P2;PMS_P1;PMS_P2;Temp;Humidity;BMP_temperature;BMP_pressure;BME280_temperature;BME280_humidity;BME280_pressure;Samples;Min_cycle;Max_cycle;Signal;HPM_P1;HPM_P2
2023/01/22 00:00:02;;;;;;;;;36.50;34.50;;;;;5.02;51.90;102803.75;5017668;28;45463;-79
2023/01/22 00:02:27;;;;;;;;;35.75;33.75;;;;;4.85;52.07;102776.13;4999994;28;46590;-81
2023/01/22 00:04:52;;;;;;;;;38.25;35.75;;;;;4.85;51.83;102776.13;5017685;28;45470;-77
2023/01/22 00:07:18;;;;;;;;;43.50;36.00;;;;;4.85;51.60;102787.66;5015921;28;45390;-78
2023/01/22 00:09:43;;;;;;;;;37.50;37.00;;;;;4.87;52.26;102796.53;5017785;28;45432;-78
2023/01/22 00:12:09;;;;;;;;;43.75;36.50;;;;;4.66;52.53;102764.44;5017763;28;45457;-77
2023/01/22 00:14:35;;;;;;;;;37.25;30.25;;;;;4.75;52.14;102771.63;5017183;28;46218;-78
2023/01/22 00:17:00;;;;;;;;;47.00;35.50;;;;;4.57;52.39;102751.06;5017578;28;45439;-76
2023/01/22 00:19:26;;;;;;;;;34.75;32.00;;;;;4.64;52.66;102763.53;5016943;28;45440;-76
2023/01/22 00:21:51;;;;;;;;;37.00;34.50;;;;;4.75;52.78;102791.09;4999571;28;46440;-78
2023/01/22 00:24:16;;;;;;;;;26.50;20.75;;;;;4.79;52.43;102799.97;5017021;28;46108;-77
2023/01/22 00:26:42;;;;;;;;;42.25;39.00;;;;;4.76;52.81;102776.06;4999124;28;45245;-76
2023/01/22 00:29:07;;;;;;;;;40.25;34.00;;;;;4.64;52.56;102755.56;5017552;28;45739;-78
2023/01/22 05:31:57;;;;;;;;;37.25;30.50;;;;;4.33;52.42;102692.38;3298090;26;46031;-76
2023/01/22 05:34:23;;;;;;;;;41.75;30.00;;;;;4.51;52.67;102727.94;5054529;28;45677;-77
2023/01/22 05:36:48;;;;;;;;;24.00;21.50;;;;;4.11;52.75;102660.25;5056607;28;45369;-77
2023/01/22 05:39:15;;;;;;;;;32.25;28.25;;;;;4.51;52.70;102716.44;5056715;28;45523;-75
2023/01/22 05:41:41;;;;;;;;;35.00;26.75;;;;;4.49;53.18;102708.47;5056713;28;45431;-79
2023/01/22 05:44:09;;;;;;;;;33.50;32.00;;;;;4.57;52.92;102721.84;5056047;28;45407;-77
2023/01/22 05:46:34;;;;;;;;;38.25;33.25;;;;;4.43;53.01;102704.84;5038758;28;45817;-79
2023/01/22 05:49:00;;;;;;;;;22.67;22.67;;;;;4.50;52.86;102709.38;5057035;28;45373;-78
2023/01/22 05:51:25;;;;;;;;;38.25;31.50;;;;;4.60;52.86;102726.25;5038521;28;45919;-76
2023/01/22 05:53:50;;;;;;;;;40.75;33.50;;;;;4.35;53.12;102667.59;5056064;28;45326;-78
2023/01/22 05:56:16;;;;;;;;;23.50;12.75;;;;;4.44;53.11;102688.94;5056604;28;45338;-76
2023/01/22 05:58:41;;;;;;;;;36.50;32.50;;;;;4.63;52.76;102715.69;5056907;28;45513;-77
2023/01/22 06:01:07;;;;;;;;;35.25;29.25;;;;;4.59;53.08;102703.28;5039521;28;46326;-78
2023/01/22 06:03:33;;;;;;;;;38.25;35.50;;;;;4.46;53.09;102696.91;5056980;28;45362;-76
2023/01/22 06:06:03;;;;;;;;;32.25;31.25;;;;;4.62;53.63;102716.56;5058970;28;45272;-77
2023/01/22 06:08:29;;;;;;;;;35.50;30.50;;;;;4.31;53.21;102660.50;5062011;28;45471;-77
2023/01/22 06:10:59;;;;;;;;;43.50;33.75;;;;;4.57;53.11;102704.13;5064350;28;45578;-77
2023/01/22 06:13:25;;;;;;;;;41.00;31.00;;;;;4.74;53.52;102727.31;5063524;28;45451;-77
2023/01/22 06:15:52;;;;;;;;;42.25;34.00;;;;;4.50;53.57;102677.50;5062169;28;45350;-78
2023/01/22 06:18:18;;;;;;;;;35.75;27.75;;;;;4.73;53.25;102730.84;5058292;28;45468;-78
2023/01/22 06:20:43;;;;;;;;;37.75;32.75;;;;;4.76;53.29;102733.53;5056662;28;45453;-77
2023/01/22 06:23:09;;;;;;;;;33.75;33.00;;;;;4.80;53.47;102735.34;5055666;28;45378;-77
2023/01/22 06:25:34;;;;;;;;;35.50;30.25;;;;;4.76;53.46;102720.25;5037527;28;45419;-78
2023/01/22 06:27:59;;;;;;;;;29.00;27.50;;;;;4.83;53.17;102725.66;5037739;28;45467;-77
2023/01/22 06:30:25;;;;;;;;;40.50;33.50;;;;;4.86;53.25;102728.31;5056311;28;45531;-76
2023/01/22 06:32:53;;;;;;;;;38.50;29.25;;;;;4.77;53.15;102712.28;5056164;28;45299;-77
2023/01/22 06:35:19;;;;;;;;;37.75;33.50;;;;;4.67;53.57;102688.28;5055756;28;45422;-76
2023/01/22 06:37:44;;;;;;;;;43.00;36.00;;;;;4.87;53.22;102718.56;5055517;28;45492;-77
2023/01/22 06:40:10;;;;;;;;;34.25;29.25;;;;;4.66;53.71;102683.84;5056084;28;45310;-77
2023/01/22 06:42:36;;;;;;;;;38.50;33.75;;;;;4.86;53.32;102717.69;5055393;28;46382;-79
2023/01/22 06:45:01;;;;;;;;;34.25;33.00;;;;;4.82;53.15;102725.63;5032351;28;45607;-77
2023/01/22 06:47:27;;;;;;;;;35.50;32.00;;;;;4.74;53.55;102717.59;5033203;28;45271;-78
2023/01/22 06:49:52;;;;;;;;;35.00;30.25;;;;;4.72;53.65;102708.69;5048562;28;45286;-78
2023/01/22 06:52:17;;;;;;;;;38.00;28.75;;;;;4.76;54.11;102722.91;5055458;28;45598;-78
2023/01/22 06:54:43;;;;;;;;;36.25;31.25;;;;;4.78;53.63;102726.44;5055770;28;45389;-79
2023/01/22 06:57:09;;;;;;;;;30.75;29.25;;;;;4.74;54.17;102717.59;5037113;28;45506;-77
2023/01/22 06:59:34;;;;;;;;;29.50;26.25;;;;;4.73;53.67;102729.09;5047849;28;45540;-77
2023/01/22 07:02:00;;;;;;;;;39.67;33.67;;;;;4.74;53.72;102729.97;5034139;28;47079;-78
2023/01/22 07:04:25;;;;;;;;;48.50;36.50;;;;;4.78;54.15;102737.97;5047199;28;45406;-77
2023/01/22 07:06:54;;;;;;;;;45.25;34.00;;;;;4.72;54.25;102734.38;5054937;28;45429;-86
2023/01/22 07:09:19;;;;;;;;;41.25;33.75;;;;;4.48;54.27;102684.56;5053083;28;47179;-83
2023/01/22 07:11:44;;;;;;;;;35.25;29.75;;;;;4.77;54.44;102738.84;5055128;28;46176;-79
2023/01/22 07:14:10;;;;;;;;;38.25;32.50;;;;;4.79;54.28;102744.19;5054820;28;45342;-76
2023/01/22 07:16:35;;;;;;;;;42.50;39.50;;;;;4.73;54.55;102750.34;5055004;28;45518;-76
2023/01/22 07:19:00;;;;;;;;;33.50;31.00;;;;;4.79;54.44;102758.38;5043412;28;45398;-81
2023/01/22 07:21:26;;;;;;;;;39.25;33.50;;;;;4.75;55.08;102753.91;5049458;28;48504;-79
2023/01/22 07:23:52;;;;;;;;;38.75;35.25;;;;;4.74;54.60;102753.88;5046783;28;45305;-80
2023/01/22 07:26:17;;;;;;;;;28.00;26.50;;;;;4.63;54.82;102740.50;5054865;28;45420;-79
2023/01/22 07:28:44;;;;;;;;;40.00;34.25;;;;;4.84;55.22;102775.25;5031619;28;47015;-77
2023/01/22 07:31:10;;;;;;;;;39.50;36.00;;;;;4.81;55.32;102775.22;5031754;28;47188;-79
2023/01/22 07:33:36;;;;;;;;;34.50;33.50;;;;;4.77;54.95;102770.72;5033540;28;45552;-76
2023/01/22 07:36:06;;;;;;;;;39.00;31.50;;;;;4.74;55.56;102772.50;5052057;28;45402;-79
2023/01/22 07:38:32;;;;;;;;;41.25;38.75;;;;;4.66;55.42;102763.53;5053827;28;45267;-81
2023/01/22 07:41:06;;;;;;;;;40.50;35.50;;;;;4.36;55.56;102705.66;5053106;28;46312;-78
2023/01/22 07:43:31;;;;;;;;;37.00;32.25;;;;;4.84;55.30;102780.56;5051151;28;45484;-77
2023/01/22 07:46:06;;;;;;;;;44.75;37.75;;;;;4.86;55.04;102791.19;5051458;28;45291;-81
2023/01/22 07:48:32;;;;;;;;;34.00;28.25;;;;;4.64;55.11;102747.59;5038735;28;46783;-78
2023/01/22 07:50:59;;;;;;;;;36.00;34.75;;;;;4.74;55.65;102759.19;5036572;28;48374;-78
2023/01/22 07:53:26;;;;;;;;;35.25;28.75;;;;;4.76;55.14;102761.00;5054298;28;45452;-76
2023/01/22 07:55:51;;;;;;;;;45.75;28.75;;;;;4.74;55.16;102775.16;5054715;28;45349;-77
2023/01/22 07:58:16;;;;;;;;;37.75;32.75;;;;;4.59;55.09;102736.03;5053811;28;45537;-77
2023/01/22 08:00:42;;;;;;;;;38.50;32.00;;;;;4.78;55.04;102767.19;5054171;28;45382;-78
2023/01/22 08:03:12;;;;;;;;;42.50;33.00;;;;;4.78;55.07;102768.97;5053836;28;45377;-77
2023/01/22 08:05:39;;;;;;;;;29.75;26.00;;;;;4.91;55.27;102784.19;5054399;28;45329;-76
2023/01/22 08:08:06;;;;;;;;;48.00;32.50;;;;;4.84;55.02;102769.06;5048417;28;45588;-78
2023/01/22 08:10:31;;;;;;;;;34.75;30.00;;;;;4.78;55.00;102767.19;5053573;28;45375;-82
2023/01/22 08:12:59;;;;;;;;;30.25;28.00;;;;;4.92;55.30;102793.94;5048100;28;45545;-80
2023/01/22 08:15:24;;;;;;;;;35.50;31.75;;;;;4.79;55.28;102774.31;5057884;28;45233;-81
2023/01/22 08:17:50;;;;;;;;;28.50;26.00;;;;;4.81;55.25;102777.88;5057533;28;45583;-80
2023/01/22 08:20:16;;;;;;;;;37.75;28.25;;;;;4.94;55.16;102809.00;5052798;28;46992;-80
2023/01/22 08:22:42;;;;;;;;;34.50;28.75;;;;;4.89;55.12;102793.91;5035461;28;45400;-78
2023/01/22 08:25:09;;;;;;;;;28.75;28.25;;;;;4.77;55.00;102781.38;5056138;28;45258;-78
2023/01/22 08:27:34;;;;;;;;;33.75;22.50;;;;;4.51;55.13;102733.25;5057375;28;45646;-82
2023/01/22 08:30:01;;;;;;;;;35.50;30.75;;;;;4.91;54.86;102800.13;5057611;28;45666;-76
2023/01/22 08:32:26;;;;;;;;;31.00;27.50;;;;;4.53;55.10;102733.28;5056960;28;45410;-78
2023/01/22 08:34:53;;;;;;;;;33.50;26.50;;;;;4.85;55.02;102792.06;5057722;28;45432;-78
2023/01/22 08:37:22;;;;;;;;;38.00;31.75;;;;;4.87;55.01;102800.94;5057317;28;45354;-79
2023/01/22 08:39:47;;;;;;;;;31.00;27.75;;;;;5.00;55.13;102823.25;5031713;28;47075;-79
2023/01/22 08:42:13;;;;;;;;;31.00;28.25;;;;;4.76;54.99;102782.25;5057253;28;45421;-78
2023/01/22 08:44:38;;;;;;;;;28.75;28.75;;;;;4.92;55.51;102799.25;5054581;28;45398;-78
2023/01/22 08:47:04;;;;;;;;;30.50;28.00;;;;;4.90;54.66;102795.69;5056768;28;45845;-79
2023/01/22 08:49:29;;;;;;;;;32.25;28.75;;;;;4.82;54.86;102778.78;5057207;28;46165;-79
2023/01/22 08:51:55;;;;;;;;;29.25;29.00;;;;;5.07;54.96;102830.41;5056518;28;45362;-78
2023/01/22 08:54:21;;;;;;;;;36.50;28.75;;;;;5.10;55.38;102830.44;5057186;28;45480;-77
2023/01/22 08:56:46;;;;;;;;;27.75;25.75;;;;;5.05;54.96;102813.53;5056700;28;45375;-77
2023/01/22 08:59:12;;;;;;;;;36.25;25.50;;;;;5.13;55.07;102825.13;5054798;28;46495;-79
2023/01/22 09:01:38;;;;;;;;;32.25;28.75;;;;;4.91;54.94;102782.41;5056748;28;45323;-78
2023/01/22 09:04:08;;;;;;;;;32.00;27.75;;;;;5.20;55.03;102829.63;5056668;28;45531;-77
2023/01/22 09:06:34;;;;;;;;;32.25;27.75;;;;;5.19;54.71;102819.91;5055274;28;45607;-78
2023/01/22 09:09:00;;;;;;;;;27.25;24.25;;;;;5.27;54.62;102836.81;5037754;28;47278;-79
2023/01/22 09:11:29;;;;;;;;;23.75;22.75;;;;;5.23;54.58;102821.69;5056544;28;45298;-78
2023/01/22 09:13:55;;;;;;;;;28.25;27.25;;;;;5.15;54.72;102799.47;5056440;28;45354;-78
2023/01/22 09:16:26;;;;;;;;;27.75;24.00;;;;;5.25;54.13;102815.53;5034753;28;46159;-79
2023/01/22 09:18:52;;;;;;;;;29.75;26.50;;;;;5.36;54.34;102818.25;5046424;28;45552;-76
2023/01/22 09:21:18;;;;;;;;;21.00;20.75;;;;;5.42;54.44;102828.06;5056026;28;45347;-77
2023/01/22 09:23:43;;;;;;;;;38.00;32.00;;;;;5.39;54.41;102820.94;5056524;28;45517;-78
2023/01/22 09:26:09;;;;;;;;;26.25;26.25;;;;;5.38;54.04;102815.63;5038159;28;47056;-78
2023/01/22 09:28:34;;;;;;;;;24.50;20.75;;;;;5.11;53.94;102782.59;5056187;28;46389;-78
2023/01/22 09:31:00;;;;;;;;;32.50;30.50;;;;;5.31;54.14;102818.22;5056375;28;45477;-78
2023/01/22 09:33:26;;;;;;;;;27.00;26.25;;;;;5.26;54.19;102822.63;5056701;28;45417;-78
2023/01/22 09:35:52;;;;;;;;;33.00;26.75;;;;;5.11;54.14;102801.19;5035026;28;46605;-78
2023/01/22 09:38:17;;;;;;;;;29.75;27.00;;;;;5.16;54.13;102810.13;5025609;28;47438;-78
2023/01/22 09:40:57;;;;;;;;;30.75;29.75;;;;;5.12;54.77;102802.09;5053732;28;45224;-77
2023/01/22 09:43:31;;;;;;;;;30.00;26.75;;;;;5.28;54.14;102831.50;5055494;28;45477;-78
2023/01/22 09:46:03;;;;;;;;;29.00;25.50;;;;;5.41;54.13;102835.16;5042250;28;45512;-78
2023/01/22 09:48:36;;;;;;;;;26.50;26.25;;;;;5.47;53.83;102840.53;5056094;28;45496;-80
2023/01/22 09:51:01;;;;;;;;;29.00;23.75;;;;;5.51;53.98;102841.47;5056545;28;45246;-78
2023/01/22 09:53:32;;;;;;;;;23.25;21.50;;;;;5.55;53.74;102838.81;5056602;28;45631;-80
2023/01/22 09:56:04;;;;;;;;;24.75;22.00;;;;;5.47;53.98;102831.66;5056598;28;45379;-81
2023/01/22 09:58:33;;;;;;;;;28.75;25.25;;;;;5.63;53.53;102844.19;5033499;28;47560;-78
2023/01/22 10:01:05;;;;;;;;;29.00;25.00;;;;;5.49;53.29;102830.81;5048707;28;45939;-77
2023/01/22 10:03:47;;;;;;;;;25.25;23.50;;;;;5.59;54.20;102855.72;5040530;28;45311;-80
2023/01/22 10:06:21;;;;;;;;;34.75;26.75;;;;;5.61;54.09;102857.50;5055988;28;45247;-77
2023/01/22 10:08:49;;;;;;;;;30.75;24.50;;;;;5.65;53.95;102856.66;5055634;28;46035;-79
2023/01/22 10:11:15;;;;;;;;;21.25;21.25;;;;;5.61;53.90;102841.53;5055866;28;45485;-77
2023/01/22 10:13:40;;;;;;;;;30.50;20.25;;;;;5.69;53.65;102857.59;5055834;28;45386;-79
2023/01/22 10:16:06;;;;;;;;;32.00;28.00;;;;;5.70;53.41;102860.22;5055699;28;45759;-78
2023/01/22 10:18:47;;;;;;;;;29.50;26.00;;;;;5.50;53.73;102815.72;5054762;28;46108;-79
2023/01/22 10:21:40;;;;;;;;;32.50;25.25;;;;;5.68;53.79;102848.69;5055995;28;45363;-79
2023/01/22 10:24:09;;;;;;;;;26.50;26.25;;;;;5.55;53.63;102830.84;5037855;28;45482;-78
2023/01/22 10:26:42;;;;;;;;;32.50;27.75;;;;;5.59;53.74;102845.06;5056488;28;45320;-79
2023/01/22 10:29:12;;;;;;;;;22.00;18.00;;;;;5.43;53.55;102805.94;5054702;28;45511;-80
2023/01/22 10:31:44;;;;;;;;;31.75;30.00;;;;;5.42;53.76;102809.47;5054702;28;45479;-82
2023/01/22 10:34:13;;;;;;;;;29.50;23.25;;;;;5.48;54.14;102826.34;5055921;28;45468;-83
2023/01/22 10:36:39;;;;;;;;;24.00;21.25;;;;;5.58;54.53;102832.66;5055580;28;45515;-80
2023/01/22 10:39:12;;;;;;;;;29.00;24.25;;;;;5.24;53.91;102780.94;5055293;28;45314;-78
2023/01/22 10:41:42;;;;;;;;;34.75;24.00;;;;;5.58;54.16;102836.19;5046890;28;45574;-80
2023/01/22 10:44:18;;;;;;;;;35.25;28.75;;;;;5.62;53.94;102840.66;5052758;28;45530;-79
2023/01/22 10:46:45;;;;;;;;;25.75;22.50;;;;;5.59;54.33;102831.78;5036976;28;46265;-80
2023/01/22 10:49:15;;;;;;;;;21.00;21.00;;;;;5.46;53.91;102814.81;5054895;28;46487;-78
2023/01/22 10:51:45;;;;;;;;;26.75;24.25;;;;;5.62;54.16;102838.00;5048962;28;45276;-80
2023/01/22 10:54:19;;;;;;;;;26.00;21.00;;;;;5.42;53.61;102799.72;5037023;28;46084;-80
2023/01/22 10:56:44;;;;;;;;;26.25;22.75;;;;;5.51;53.78;102815.75;5054946;28;45360;-79
2023/01/22 10:59:23;;;;;;;;;29.00;23.25;;;;;5.43;53.85;102792.63;5055090;28;46093;-80
2023/01/22 11:01:56;;;;;;;;;26.75;26.00;;;;;5.41;54.04;102792.59;5055126;28;45323;-80
2023/01/22 11:04:25;;;;;;;;;28.25;19.50;;;;;5.66;54.03;102836.25;5037042;28;45300;-82
2023/01/22 11:07:03;;;;;;;;;22.75;21.50;;;;;5.72;53.75;102834.53;5054415;28;45449;-80
2023/01/22 11:09:38;;;;;;;;;27.25;24.75;;;;;5.72;53.72;102836.28;5055232;28;45321;-79
2023/01/22 11:12:27;;;;;;;;;23.75;19.00;;;;;5.63;53.71;102820.25;5055332;28;45301;-80
2023/01/22 11:15:10;;;;;;;;;32.75;26.75;;;;;5.62;53.80;102826.44;5056677;28;45436;-79
2023/01/22 11:17:39;;;;;;;;;32.00;26.00;;;;;5.59;53.93;102819.34;5056667;28;46213;-84
2023/01/22 11:20:34;;;;;;;;;26.00;22.50;;;;;5.35;54.33;102760.66;5046958;28;46275;-80
2023/01/22 11:23:10;;;;;;;;;23.75;21.00;;;;;5.66;53.96;102809.66;5037562;28;45417;-82
2023/01/22 11:26:00;;;;;;;;;25.50;23.00;;;;;5.64;53.74;102814.94;5054402;28;45288;-81
2023/01/22 11:28:46;;;;;;;;;17.25;16.25;;;;;5.55;53.62;102803.34;5054540;28;45479;-82
2023/01/22 11:31:12;;;;;;;;;25.50;19.50;;;;;5.62;54.09;102814.03;5036276;28;48203;-80
2023/01/22 11:33:52;;;;;;;;;24.00;20.75;;;;;5.60;53.50;102815.81;5053803;28;45548;-80
2023/01/22 11:36:41;;;;;;;;;24.00;18.00;;;;;5.43;53.64;102777.56;5036579;28;45467;-81
2023/01/22 11:39:45;;;;;;;;;22.50;18.50;;;;;5.51;54.11;102820.19;5052103;28;45383;-79
2023/01/22 11:42:22;;;;;;;;;24.25;21.50;;;;;5.54;54.46;102820.19;5019610;28;46039;-81
2023/01/22 11:45:01;;;;;;;;;23.50;22.00;;;;;5.53;54.09;102805.97;5054184;28;45383;-80
2023/01/22 11:48:11;;;;;;;;;26.25;19.75;;;;;5.58;54.51;102809.59;5054488;28;45272;-79
2023/01/22 11:50:50;;;;;;;;;28.75;21.75;;;;;5.55;54.38;102795.38;5051415;28;46078;-79
2023/01/22 11:53:44;;;;;;;;;23.50;21.25;;;;;5.62;53.86;102800.75;5054170;28;46334;-81
2023/01/22 11:56:31;;;;;;;;;26.50;21.00;;;;;5.67;54.35;102792.81;5054450;28;45507;-79
2023/01/22 11:59:08;;;;;;;;;26.00;19.25;;;;;5.71;53.87;102795.47;5036266;28;45300;-80
2023/01/22 12:02:09;;;;;;;;;23.25;21.25;;;;;5.61;53.99;102759.03;5054158;28;45516;-80
2023/01/22 12:04:56;;;;;;;;;22.50;21.00;;;;;5.79;54.09;102778.66;5011908;28;45449;-77
2023/01/22 12:07:34;;;;;;;;;23.25;21.75;;;;;5.84;53.75;102771.63;5051256;28;45524;-79
2023/01/22 12:10:24;;;;;;;;;30.25;23.50;;;;;5.85;53.96;102776.97;5036080;28;45554;-80
2023/01/22 12:12:54;;;;;;;;;25.50;21.75;;;;;5.65;53.99;102736.91;5054335;28;45496;-80
2023/01/22 12:15:30;;;;;;;;;20.50;20.50;;;;;5.88;53.78;102762.78;5036023;28;47659;-80
2023/01/22 12:18:30;;;;;;;;;28.75;21.75;;;;;5.93;53.20;102769.06;5053947;28;45405;-79
2023/01/22 12:21:14;;;;;;;;;26.25;20.75;;;;;5.80;53.75;102740.53;5054260;28;45387;-83
2023/01/22 12:23:51;;;;;;;;;22.75;19.00;;;;;5.63;53.63;102712.06;5035617;28;47265;-82
2023/01/22 12:26:22;;;;;;;;;23.50;20.00;;;;;5.59;53.86;102696.97;5054285;28;46270;-79
2023/01/22 12:29:15;;;;;;;;;20.75;18.75;;;;;5.87;53.46;102751.22;5054227;28;45430;-81
2023/01/22 12:31:55;;;;;;;;;23.25;22.00;;;;;5.90;53.78;102751.28;5054113;28;45513;-80
2023/01/22 12:34:28;;;;;;;;;22.50;21.00;;;;;5.71;53.53;102718.31;5054011;28;45274;-83
2023/01/22 12:36:54;;;;;;;;;23.00;20.00;;;;;5.88;53.31;102744.16;5058663;28;45476;-80
2023/01/22 12:39:48;;;;;;;;;18.00;18.00;;;;;5.65;53.49;102702.31;5059259;28;45268;-81
2023/01/22 12:42:34;;;;;;;;;21.00;13.00;;;;;5.93;53.65;102745.09;5054260;28;45363;-83
2023/01/22 12:45:14;;;;;;;;;15.00;15.00;;;;;5.95;53.64;102741.56;5053739;28;45403;-84
2023/01/22 12:47:53;;;;;;;;;17.50;17.00;;;;;5.85;53.34;102721.06;5055018;28;45476;-79
2023/01/22 12:50:24;;;;;;;;;26.00;21.00;;;;;5.92;53.27;102737.97;5054081;28;45323;-78
2023/01/22 12:53:20;;;;;;;;;23.75;20.25;;;;;6.03;53.81;102754.91;5053966;28;45481;-76
2023/01/22 12:56:00;;;;;;;;;12.25;12.25;;;;;5.92;53.46;102727.34;5058167;28;45495;-79
2023/01/22 12:58:29;;;;;;;;;19.25;14.50;;;;;6.02;52.91;102738.03;5057231;28;46148;-78
2023/01/22 13:01:04;;;;;;;;;18.50;16.25;;;;;6.04;53.23;102741.56;5057910;28;45410;-78
2023/01/22 13:03:30;;;;;;;;;22.00;18.00;;;;;5.96;53.22;102719.34;5057400;28;45521;-77
2023/01/22 13:05:57;;;;;;;;;16.75;15.75;;;;;5.78;53.00;102684.66;5056891;28;45488;-77
2023/01/22 13:08:34;;;;;;;;;16.75;16.25;;;;;6.00;53.21;102721.16;5056724;28;46514;-75
2023/01/22 13:11:04;;;;;;;;;14.25;14.25;;;;;6.08;52.86;102726.50;5056841;28;45314;-78
2023/01/22 13:13:34;;;;;;;;;20.50;18.25;;;;;6.09;52.73;102722.97;5056892;28;45620;-78
2023/01/22 13:16:16;;;;;;;;;19.25;18.25;;;;;6.10;53.31;102718.53;5057491;28;45450;-77
2023/01/22 13:18:51;;;;;;;;;18.00;14.75;;;;;6.02;53.00;102711.41;5057288;28;46253;-78
2023/01/22 13:21:24;;;;;;;;;13.25;13.25;;;;;5.96;52.80;102692.72;5058488;28;45399;-75
2023/01/22 13:23:49;;;;;;;;;17.75;17.75;;;;;5.93;52.71;102689.19;5038336;28;45769;-76
2023/01/22 13:26:24;;;;;;;;;15.50;13.50;;;;;6.02;52.72;102702.53;5055904;28;45552;-76
2023/01/22 13:29:04;;;;;;;;;17.75;15.50;;;;;5.93;53.29;102698.06;5050263;28;46176;-77
2023/01/22 13:31:29;;;;;;;;;19.00;17.75;;;;;6.02;52.80;102718.50;5041395;28;45575;-76
2023/01/22 13:34:07;;;;;;;;;18.75;17.75;;;;;6.02;53.08;102719.41;5052669;28;46446;-75
2023/01/22 13:36:36;;;;;;;;;25.75;17.50;;;;;5.86;52.75;102679.38;5031453;28;45352;-78
2023/01/22 13:39:02;;;;;;;;;19.50;18.25;;;;;6.03;53.22;102712.31;5056052;28;46339;-77
2023/01/22 13:41:34;;;;;;;;;21.00;15.00;;;;;6.03;53.17;102715.88;5054009;28;45384;-76
2023/01/22 13:44:02;;;;;;;;;18.75;17.75;;;;;5.94;53.19;102689.19;5034543;28;46858;-76
2023/01/22 13:46:28;;;;;;;;;25.25;19.00;;;;;5.91;53.03;102678.53;5044873;28;45584;-78
2023/01/22 13:49:17;;;;;;;;;18.50;18.50;;;;;6.04;53.33;102700.75;5052803;28;47647;-75
2023/01/22 13:51:42;;;;;;;;;12.50;12.00;;;;;6.11;53.23;102721.22;5048233;28;45969;-77
2023/01/22 13:54:20;;;;;;;;;18.00;18.00;;;;;6.16;52.88;102722.09;5055384;28;45668;-76
2023/01/22 13:56:45;;;;;;;;;21.00;13.75;;;;;6.21;53.23;102720.34;5055888;28;45387;-77
2023/01/22 13:59:22;;;;;;;;;19.25;19.00;;;;;6.24;52.46;102715.03;5054467;28;45621;-77
2023/01/22 14:01:47;;;;;;;;;20.50;19.25;;;;;6.26;52.86;102723.03;5051437;28;45475;-76
2023/01/22 14:04:25;;;;;;;;;21.50;18.75;;;;;6.21;52.90;102698.19;5055920;28;45358;-77
2023/01/22 14:06:50;;;;;;;;;17.75;15.25;;;;;6.33;52.79;102727.50;5053861;28;45411;-78
2023/01/22 14:09:28;;;;;;;;;16.25;16.25;;;;;6.32;52.81;102726.59;5055781;28;46211;-75
2023/01/22 14:11:54;;;;;;;;;20.50;18.25;;;;;6.12;52.62;102692.81;5055898;28;45284;-76
2023/01/22 14:14:19;;;;;;;;;18.75;15.00;;;;;6.26;52.76;102720.38;5052135;28;45465;-76
2023/01/22 14:16:45;;;;;;;;;14.50;13.75;;;;;6.34;52.68;102735.50;5045908;28;46223;-79
2023/01/22 14:19:11;;;;;;;;;14.00;14.00;;;;;6.33;52.63;102724.84;5036307;28;48517;-77
2023/01/22 14:21:37;;;;;;;;;17.00;17.00;;;;;6.29;52.73;102742.59;5054073;28;45505;-74
2023/01/22 14:24:03;;;;;;;;;19.25;16.75;;;;;6.23;52.72;102746.97;5057262;28;45441;-80
2023/01/22 14:26:28;;;;;;;;;18.75;17.50;;;;;6.15;52.96;102733.66;5062239;28;45294;-76
2023/01/22 14:28:54;;;;;;;;;15.75;15.00;;;;;6.14;52.80;102726.53;5062842;28;47350;-76
2023/01/22 14:31:19;;;;;;;;;21.75;18.00;;;;;6.21;53.03;102736.31;5065802;28;45235;-77
2023/01/22 14:33:45;;;;;;;;;16.50;14.00;;;;;6.16;52.95;102737.19;5059638;28;45522;-78
2023/01/22 14:36:10;;;;;;;;;16.25;14.00;;;;;6.23;52.72;102760.31;5057771;28;45437;-76
2023/01/22 14:38:35;;;;;;;;;15.50;15.50;;;;;6.17;53.29;102752.28;5036935;28;46323;-78
2023/01/22 14:41:05;;;;;;;;;14.50;14.50;;;;;6.21;52.74;102762.09;5054442;28;45412;-75
2023/01/22 14:43:31;;;;;;;;;18.50;14.25;;;;;6.18;53.13;102765.63;5039236;28;45595;-76
2023/01/22 14:45:56;;;;;;;;;15.75;13.75;;;;;5.96;53.41;102724.69;5056639;28;45383;-77
2023/01/22 14:48:22;;;;;;;;;14.75;13.25;;;;;6.18;53.23;102751.41;5037740;28;48691;-74
2023/01/22 14:50:48;;;;;;;;;11.50;11.50;;;;;6.18;53.31;102757.63;5055438;28;45407;-75
2023/01/22 14:53:15;;;;;;;;;18.75;16.25;;;;;6.21;53.19;102760.28;5037058;28;45501;-79
2023/01/22 14:55:42;;;;;;;;;20.50;15.75;;;;;6.08;53.34;102739.84;5054837;28;45526;-80
2023/01/22 14:58:08;;;;;;;;;18.25;15.75;;;;;6.20;53.63;102757.66;5054831;28;46239;-83
2023/01/22 15:00:35;;;;;;;;;21.25;18.00;;;;;6.08;53.68;102742.50;5036870;28;45374;-75
2023/01/22 15:03:00;;;;;;;;;15.00;13.75;;;;;6.07;53.47;102744.25;5037281;28;45422;-77
2023/01/22 15:05:27;;;;;;;;;17.00;17.00;;;;;6.16;53.65;102756.72;5054888;28;45541;-78
2023/01/22 15:07:53;;;;;;;;;21.00;19.50;;;;;6.12;53.79;102752.28;5035762;28;47884;-77
2023/01/22 15:10:21;;;;;;;;;25.50;18.50;;;;;6.13;53.82;102753.16;5052599;28;45430;-76
2023/01/22 15:12:49;;;;;;;;;21.00;20.00;;;;;6.13;53.81;102753.16;5054736;28;45285;-77
2023/01/22 15:15:17;;;;;;;;;23.25;22.25;;;;;6.16;53.76;102755.84;5038162;28;46116;-77
2023/01/22 15:17:43;;;;;;;;;26.25;19.00;;;;;6.18;54.27;102762.06;5035344;28;47836;-76
2023/01/22 15:20:09;;;;;;;;;22.25;16.50;;;;;6.17;54.37;102765.63;5054961;28;45383;-75
2023/01/22 15:22:34;;;;;;;;;19.75;19.75;;;;;5.86;53.97;102711.31;5036471;28;45316;-76
2023/01/22 15:25:00;;;;;;;;;16.50;15.00;;;;;6.14;53.95;102753.16;5036705;28;45367;-77
2023/01/22 15:27:25;;;;;;;;;21.50;21.50;;;;;6.17;53.96;102763.84;5048581;28;46266;-77
2023/01/22 15:29:50;;;;;;;;;27.00;22.25;;;;;6.08;54.25;102743.38;5046898;28;45611;-76
2023/01/22 15:32:16;;;;;;;;;16.75;15.50;;;;;6.20;54.31;102760.31;5052430;28;45478;-76
2023/01/22 15:34:41;;;;;;;;;25.50;17.25;;;;;6.21;54.44;102762.09;5054227;28;45501;-77
2023/01/22 15:37:07;;;;;;;;;20.00;18.50;;;;;6.20;54.27;102758.53;5053545;28;46117;-76
2023/01/22 15:39:32;;;;;;;;;21.75;19.00;;;;;6.07;54.38;102740.72;5052331;28;45435;-76
2023/01/22 15:41:58;;;;;;;;;18.50;16.25;;;;;6.15;53.95;102757.63;5035611;28;45531;-77
2023/01/22 15:44:23;;;;;;;;;22.50;16.75;;;;;5.94;54.44;102734.47;5052409;28;45200;-77
2023/01/22 15:46:49;;;;;;;;;20.75;17.25;;;;;6.07;54.71;102767.34;5053799;28;45434;-77
2023/01/22 15:49:16;;;;;;;;;18.00;15.75;;;;;6.03;54.82;102768.22;5052640;28;45313;-80
2023/01/22 15:51:42;;;;;;;;;18.75;18.75;;;;;6.00;54.96;102771.75;5052195;28;45375;-77
2023/01/22 15:54:13;;;;;;;;;18.00;18.00;;;;;5.88;54.56;102749.47;5053840;28;45362;-79
2023/01/22 15:56:39;;;;;;;;;24.00;19.00;;;;;6.02;55.12;102770.00;5052172;28;47256;-77
2023/01/22 15:59:05;;;;;;;;;19.25;17.50;;;;;6.00;54.90;102766.44;5053485;28;45475;-77
2023/01/22 16:01:31;;;;;;;;;25.00;18.50;;;;;6.08;54.62;102777.09;5052876;28;45366;-78
2023/01/22 16:03:57;;;;;;;;;16.75;16.25;;;;;5.78;55.16;102732.56;5053761;28;45359;-77
2023/01/22 16:06:27;;;;;;;;;24.50;20.50;;;;;6.11;55.49;102765.59;5053706;28;46020;-76
2023/01/22 16:08:56;;;;;;;;;19.00;16.00;;;;;6.14;55.12;102774.47;5054150;28;45389;-78
2023/01/22 16:11:22;;;;;;;;;19.75;17.75;;;;;6.13;54.90;102778.00;5036396;28;45477;-77
2023/01/22 16:13:49;;;;;;;;;21.75;19.00;;;;;6.08;55.00;102775.34;5035193;28;46444;-78
2023/01/22 16:16:20;;;;;;;;;26.75;19.25;;;;;6.08;54.99;102775.34;5035876;28;47170;-78
2023/01/22 16:18:47;;;;;;;;;28.00;19.75;;;;;6.03;54.92;102758.47;5053641;28;45499;-76
2023/01/22 16:21:14;;;;;;;;;25.25;23.75;;;;;6.03;54.82;102773.53;5053562;28;45508;-78
2023/01/22 16:23:42;;;;;;;;;29.00;23.00;;;;;5.86;55.19;102753.91;5052293;28;46346;-79
2023/01/22 16:26:12;;;;;;;;;23.50;22.75;;;;;6.05;55.46;102780.63;5036398;28;46290;-78
2023/01/22 16:28:38;;;;;;;;;22.00;20.25;;;;;6.08;55.28;102777.09;5036103;28;45418;-76